createdAt,value
2023-05-13T00:00:48.566Z,100381.25
2023-05-13T00:05:49.956Z,100376.72
2023-05-13T00:10:51.433Z,100369.38
2023-05-13T00:15:53.268Z,100364.84
2023-05-13T00:20:54.746Z,100370.78
2023-05-13T00:25:56.142Z,100357.09
2023-05-13T00:30:57.519Z,100369.72
2023-05-13T00:35:58.893Z,100371.16
2023-05-13T00:41:00.283Z,100362.25
2023-05-13T00:46:01.778Z,100363.56
2023-05-13T00:51:03.191Z,100358.56
2023-05-13T00:56:04.881Z,100361.88
2023-05-13T01:01:40.981Z,100362.34
2023-05-13T01:07:19.536Z,100372.34
2023-05-13T01:12:29.581Z,100377.56
2023-05-13T01:18:03.604Z,100381.13
2023-05-13T01:23:06.166Z,100380.41
2023-05-13T01:28:08.112Z,100389.88
2023-05-13T01:33:09.619Z,100392.41
2023-05-13T01:38:11.003Z,100397.16
2023-05-13T01:43:12.465Z,100404.28
2023-05-13T01:48:13.864Z,100403.25
2023-05-13T01:53:15.242Z,100407.03
2023-05-13T01:58:16.626Z,100410.00
2023-05-13T02:03:18.517Z,100411.66
2023-05-13T02:08:21.603Z,100415.69
2023-05-13T02:13:23.249Z,100411.06
2023-05-13T02:18:24.688Z,100408.34
2023-05-13T02:23:26.392Z,100411.91
2023-05-13T02:28:27.769Z,100414.25
2023-05-13T02:33:29.158Z,100410.09
2023-05-13T02:38:30.547Z,100406.78
2023-05-13T02:43:31.931Z,100407.97
2023-05-13T02:48:33.319Z,100416.41
2023-05-13T02:53:34.699Z,100411.75
2023-05-13T02:58:36.605Z,100409.25
2023-05-13T03:03:38.086Z,100414.13
2023-05-13T03:08:39.561Z,100412.47
2023-05-13T03:13:40.954Z,100414.13
2023-05-13T03:18:42.438Z,100418.53
2023-05-13T03:23:44.047Z,100412.72
2023-05-13T03:28:46.100Z,100414.59
2023-05-13T03:33:47.495Z,100412.09
2023-05-13T03:38:48.959Z,100418.19
2023-05-13T03:43:50.472Z,100418.97
2023-05-13T03:48:51.885Z,100422.34
2023-05-13T03:53:53.287Z,100429.31
2023-05-13T03:58:54.693Z,100428.94
2023-05-13T04:03:56.081Z,100430.38
2023-05-13T04:08:57.488Z,100437.31
2023-05-13T04:13:58.866Z,100435.84
2023-05-13T04:19:00.405Z,100437.31
2023-05-13T04:24:01.857Z,100440.97
2023-05-13T04:29:03.506Z,100432.97
2023-05-13T04:34:04.884Z,100440.72
2023-05-13T04:39:06.286Z,100446.56
2023-05-13T04:44:07.659Z,100453.31
2023-05-13T04:49:09.127Z,100447.47
2023-05-13T04:54:10.690Z,100453.69
2023-05-13T04:59:12.094Z,100451.31
2023-05-13T05:04:13.763Z,100454.38
2023-05-13T05:09:15.265Z,100471.84
2023-05-13T05:14:16.952Z,100472.44
2023-05-13T05:19:23.653Z,100467.81
2023-05-13T05:24:25.187Z,100467.94
2023-05-13T05:29:26.560Z,100473.16
2023-05-13T05:34:27.986Z,100482.34
2023-05-13T05:39:29.372Z,100476.41
2023-05-13T05:44:30.739Z,100476.78
2023-05-13T05:49:32.127Z,100486.66
2023-05-13T05:54:33.514Z,100485.56
2023-05-13T05:59:34.921Z,100472.75
2023-05-13T06:04:36.365Z,100477.38
2023-05-13T06:09:37.767Z,100469.16
2023-05-13T06:14:39.179Z,100472.53
2023-05-13T06:19:42.559Z,100473.13
2023-05-13T06:24:44.771Z,100475.00
2023-05-13T06:29:46.345Z,100475.38
2023-05-13T06:34:48.305Z,100474.56
2023-05-13T06:39:49.788Z,100479.81
2023-05-13T06:44:51.164Z,100473.25
2023-05-13T06:49:52.547Z,100480.59
2023-05-13T06:54:53.924Z,100470.66
2023-05-13T06:59:55.330Z,100474.00
2023-05-13T07:04:56.761Z,100466.63
2023-05-13T07:09:58.158Z,100462.59
2023-05-13T07:14:59.590Z,100466.50
2023-05-13T07:20:01.002Z,100467.34
2023-05-13T07:25:02.495Z,100461.28
2023-05-13T07:30:04.073Z,100463.56
2023-05-13T07:35:05.749Z,100460.34
2023-05-13T07:40:07.760Z,100451.56
2023-05-13T07:45:09.784Z,100453.44
2023-05-13T07:50:11.180Z,100451.78
2023-05-13T07:55:12.586Z,100449.03
2023-05-13T08:00:15.408Z,100445.47
2023-05-13T08:05:16.787Z,100443.19
2023-05-13T08:10:18.190Z,100441.88
2023-05-13T08:15:19.754Z,100443.81
2023-05-13T08:20:23.016Z,100440.25
2023-05-13T08:25:24.670Z,100437.72
2023-05-13T08:30:26.068Z,100434.41
2023-05-13T08:35:28.492Z,100438.81
2023-05-13T08:40:29.957Z,100429.41
2023-05-13T08:45:31.368Z,100435.72
2023-05-13T08:50:32.767Z,100434.03
2023-05-13T08:55:34.151Z,100430.00
2023-05-13T09:00:35.545Z,100428.34
2023-05-13T09:05:38.765Z,100430.00
2023-05-13T09:10:40.511Z,100435.25
2023-05-13T09:15:42.208Z,100433.09
2023-05-13T09:20:43.675Z,100432.50
2023-05-13T09:25:45.139Z,100432.63
2023-05-13T09:30:47.076Z,100437.41
2023-05-13T09:35:53.427Z,100440.38
2023-05-13T09:40:56.370Z,100439.94
2023-05-13T09:46:01.457Z,100437.78
2023-05-13T09:51:02.937Z,100432.94
2023-05-13T09:56:04.440Z,100425.31
2023-05-13T10:01:05.866Z,100431.72
2023-05-13T10:06:08.064Z,100419.47
2023-05-13T10:11:09.449Z,100429.59
2023-05-13T10:16:10.853Z,100418.44
2023-05-13T10:21:12.565Z,100422.59
2023-05-13T10:26:14.160Z,100419.84
2023-05-13T10:31:17.244Z,100420.69
2023-05-13T10:36:36.435Z,100416.28
2023-05-13T10:42:19.896Z,100417.47
2023-05-13T10:47:21.357Z,100416.06
2023-05-13T10:52:22.770Z,100421.53
2023-05-13T10:57:35.755Z,100423.16
2023-05-13T11:02:37.242Z,100427.81
2023-05-13T11:07:41.764Z,100440.69
2023-05-13T11:12:43.162Z,100444.69
2023-05-13T11:17:45.709Z,100449.56
2023-05-13T11:22:47.155Z,100448.97
2023-05-13T11:27:48.623Z,100448.97
2023-05-13T11:32:56.863Z,100451.94
2023-05-13T11:38:02.350Z,100453.84
2023-05-13T11:43:04.921Z,100455.75
2023-05-13T11:48:20.176Z,100459.31
2023-05-13T11:53:22.228Z,100470.75
2023-05-13T11:58:23.710Z,100469.06
2023-05-13T12:03:27.547Z,100467.16
2023-05-13T12:08:29.842Z,100478.34
2023-05-13T12:13:31.226Z,100487.25
2023-05-13T12:18:33.644Z,100487.44
2023-05-13T12:23:41.141Z,100481.38
2023-05-13T12:28:42.696Z,100495.91
2023-05-13T12:33:44.425Z,100500.78
2023-05-13T12:39:11.278Z,100508.34
2023-05-13T12:44:15.913Z,100507.75
2023-05-13T12:49:17.314Z,100516.44
2023-05-13T12:54:18.847Z,100513.44
2023-05-13T12:59:20.267Z,100509.91
2023-05-13T13:04:21.689Z,100503.00
2023-05-13T13:09:23.098Z,100503.81
2023-05-13T13:14:25.988Z,100513.31
2023-05-13T13:19:27.428Z,100509.53
2023-05-13T13:24:28.836Z,100502.38
2023-05-13T13:29:31.210Z,100501.91
2023-05-13T13:34:32.610Z,100514.16
2023-05-13T13:39:34.743Z,100508.47
2023-05-13T13:44:38.235Z,100511.44
2023-05-13T13:49:39.626Z,100507.63
2023-05-13T13:54:41.051Z,100512.47
2023-05-13T13:59:42.430Z,100515.22
2023-05-13T14:04:46.296Z,100509.53
2023-05-13T14:09:48.273Z,100506.22
2023-05-13T14:14:49.665Z,100495.28
2023-05-13T14:19:51.752Z,100496.06
2023-05-13T14:24:53.219Z,100496.69
2023-05-13T14:29:54.643Z,100496.69
2023-05-13T14:34:56.276Z,100491.22
2023-05-13T14:39:57.685Z,100491.44
2023-05-13T14:44:59.083Z,100492.06
2023-05-13T14:50:00.566Z,100490.28
2023-05-13T14:55:01.940Z,100489.06
2023-05-13T15:00:03.831Z,100488.22
2023-05-13T15:05:05.658Z,100486.31
2023-05-13T15:10:07.388Z,100491.31
2023-05-13T15:15:09.687Z,100494.53
2023-05-13T15:20:11.632Z,100490.50
2023-05-13T15:25:13.084Z,100482.88
2023-05-13T15:30:14.620Z,100481.44
2023-05-13T15:35:17.376Z,100494.06
2023-05-13T15:40:18.843Z,100505.00
2023-05-13T15:45:20.222Z,100501.41
2023-05-13T15:50:21.903Z,100494.66
2023-05-13T15:55:23.460Z,100489.44
2023-05-13T16:00:25.012Z,100487.28
2023-05-13T16:05:26.448Z,100485.72
2023-05-13T16:10:27.870Z,100478.97
2023-05-13T16:15:29.242Z,100470.50
2023-05-13T16:20:30.684Z,100471.81
2023-05-13T16:25:32.066Z,100470.84
2023-05-13T16:30:33.617Z,100465.75
2023-05-13T16:35:35.502Z,100467.28
2023-05-13T16:40:36.909Z,100458.25
2023-05-13T16:45:39.280Z,100458.50
2023-05-13T16:50:40.782Z,100454.31
2023-05-13T16:55:42.174Z,100448.88
2023-05-13T17:00:43.665Z,100449.31
2023-05-13T17:05:45.070Z,100449.22
2023-05-13T17:10:46.446Z,100451.00
2023-05-13T17:15:47.876Z,100453.88
2023-05-13T17:20:49.264Z,100456.47
2023-05-13T17:25:50.812Z,100449.91
2023-05-13T17:30:52.441Z,100452.28
2023-05-13T17:35:53.831Z,100455.38
2023-05-13T17:40:55.287Z,100454.53
2023-05-13T17:45:56.661Z,100454.91
2023-05-13T17:50:58.081Z,100453.88
2023-05-13T17:55:59.523Z,100447.19
2023-05-13T18:01:01.152Z,100455.00
2023-05-13T18:06:02.559Z,100451.59
2023-05-13T18:11:03.982Z,100457.75
2023-05-13T18:16:05.988Z,100454.41
2023-05-13T18:21:07.446Z,100454.03
2023-05-13T18:26:08.818Z,100450.63
2023-05-13T18:31:10.380Z,100451.00
2023-05-13T18:36:11.789Z,100457.28
2023-05-13T18:41:13.218Z,100459.41
2023-05-13T18:46:14.616Z,100455.84
2023-05-13T18:51:16.366Z,100466.09
2023-05-13T18:56:17.780Z,100469.03
2023-05-13T19:01:19.362Z,100476.41
2023-05-13T19:06:20.893Z,100474.97
2023-05-13T19:11:22.564Z,100477.03
2023-05-13T19:16:24.525Z,100490.91
2023-05-13T19:21:26.195Z,100485.22
2023-05-13T19:26:27.561Z,100489.47
2023-05-13T19:31:30.090Z,100492.00
2023-05-13T19:36:31.657Z,100484.38
2023-05-13T19:41:34.365Z,100484.25
2023-05-13T19:46:35.816Z,100490.78
2023-05-13T19:51:37.243Z,100491.38
2023-05-13T19:56:38.630Z,100488.25
2023-05-13T20:01:40.064Z,100501.59
2023-05-13T20:06:41.508Z,100496.72
2023-05-13T20:11:42.910Z,100493.38
2023-05-13T20:16:44.357Z,100486.50
2023-05-13T20:21:46.094Z,100489.56
2023-05-13T20:26:47.505Z,100487.28
2023-05-13T20:31:48.963Z,100480.78
2023-05-13T20:36:50.397Z,100488.97
2023-05-13T20:41:51.817Z,100498.00
2023-05-13T20:46:53.198Z,100488.50
2023-05-13T20:51:54.691Z,100487.00
2023-05-13T20:56:56.139Z,100493.06
2023-05-13T21:01:57.687Z,100483.63
2023-05-13T21:06:59.193Z,100480.91
2023-05-13T21:12:00.581Z,100483.63
2023-05-13T21:17:03.327Z,100487.22
2023-05-13T21:22:05.753Z,100489.72
2023-05-13T21:27:07.135Z,100488.88
2023-05-13T21:32:08.552Z,100486.63
2023-05-13T21:37:09.935Z,100493.50
2023-05-13T21:42:11.310Z,100487.81
2023-05-13T21:47:12.694Z,100479.59
2023-05-13T21:52:14.087Z,100478.19
2023-05-13T21:57:15.514Z,100484.56
2023-05-13T22:02:16.933Z,100483.75
2023-05-13T22:07:18.401Z,100483.50
2023-05-13T22:12:21.013Z,100482.53
2023-05-13T22:17:22.591Z,100468.78
2023-05-13T22:22:24.160Z,100479.72
2023-05-13T22:27:25.545Z,100482.22
2023-05-13T22:32:27.023Z,100477.59
2023-05-13T22:37:28.441Z,100475.91
2023-05-13T22:42:29.832Z,100471.06
2023-05-13T22:47:31.252Z,100465.59
2023-05-13T22:52:32.663Z,100463.41
2023-05-13T22:57:34.077Z,100466.53
2023-05-13T23:02:35.527Z,100465.22
2023-05-13T23:07:36.935Z,100458.44
2023-05-13T23:12:38.464Z,100458.44
2023-05-13T23:17:39.885Z,100453.81
2023-05-13T23:22:41.782Z,100445.84
2023-05-13T23:27:43.203Z,100443.94
2023-05-13T23:32:44.799Z,100436.94
2023-05-13T23:37:46.259Z,100425.53
2023-05-13T23:42:47.637Z,100426.38
2023-05-13T23:47:49.986Z,100422.56
2023-05-13T23:52:51.414Z,100418.53
2023-05-13T23:57:52.787Z,100413.31
